createdAt,value
2023-04-15T00:00:58.327Z,101026.34
2023-04-15T00:03:25.394Z,101032.34
2023-04-15T00:05:52.079Z,101033.78
2023-04-15T00:08:18.445Z,101036.31
2023-04-15T00:10:46.420Z,101030.13
2023-04-15T00:13:12.755Z,101034.63
2023-04-15T00:15:39.156Z,101034.63
2023-04-15T00:18:05.480Z,101028.78
2023-04-15T00:20:32.221Z,101034.88
2023-04-15T00:23:00.456Z,101032.44
2023-04-15T00:25:26.855Z,101035.06
2023-04-15T00:27:53.620Z,101028.78
2023-04-15T00:30:20.427Z,101037.38
2023-04-15T00:32:46.953Z,101034.63
2023-04-15T00:35:13.842Z,101031.28
2023-04-15T00:37:40.459Z,101035.06
2023-04-15T00:40:10.370Z,101033.63
2023-04-15T00:42:36.726Z,101033.44
2023-04-15T00:45:03.340Z,101034.63
2023-04-15T00:47:31.349Z,101036.84
2023-04-15T00:49:58.075Z,101040.41
2023-04-15T00:52:24.556Z,101040.50
2023-04-15T00:54:52.277Z,101044.41
2023-04-15T00:57:19.052Z,101045.47
2023-04-15T00:59:45.383Z,101042.22
2023-04-15T01:02:12.125Z,101045.28
2023-04-15T01:04:38.756Z,101040.47
2023-04-15T01:07:05.152Z,101041.50
2023-04-15T01:09:33.197Z,101046.34
2023-04-15T01:11:59.740Z,101040.69
2023-04-15T01:14:26.515Z,101036.28
2023-04-15T01:16:53.187Z,101043.19
2023-04-15T01:19:19.923Z,101041.22
2023-04-15T01:21:46.920Z,101040.16
2023-04-15T01:24:16.404Z,101037.09
2023-04-15T01:26:44.530Z,101043.41
2023-04-15T01:29:11.088Z,101041.94
2023-04-15T01:31:37.593Z,101038.59
2023-04-15T01:34:04.701Z,101041.94
2023-04-15T01:36:31.068Z,101045.50
2023-04-15T01:38:58.486Z,101045.09
2023-04-15T01:41:28.390Z,101040.06
2023-04-15T01:43:55.185Z,101043.66
2023-04-15T01:46:21.624Z,101042.47
2023-04-15T01:48:47.973Z,101041.09
2023-04-15T01:51:14.426Z,101046.69
2023-04-15T01:53:41.000Z,101038.59
2023-04-15T01:56:08.033Z,101041.31
2023-04-15T01:58:34.505Z,101049.31
2023-04-15T02:01:02.341Z,101051.19
2023-04-15T02:03:29.584Z,101045.50
2023-04-15T02:05:56.709Z,101042.38
2023-04-15T02:08:23.149Z,101049.50
2023-04-15T02:10:49.566Z,101046.34
2023-04-15T02:13:17.031Z,101040.50
2023-04-15T02:15:50.621Z,101058.94
2023-04-15T02:18:17.278Z,101043.78
2023-04-15T02:20:44.040Z,101056.13
2023-04-15T02:23:11.148Z,101059.91
2023-04-15T02:25:38.886Z,101058.22
2023-04-15T02:28:06.348Z,101063.78
2023-04-15T02:30:33.809Z,101070.81
2023-04-15T02:33:01.369Z,101064.47
2023-04-15T02:35:27.832Z,101071.16
2023-04-15T02:37:54.205Z,101077.63
2023-04-15T02:40:20.720Z,101072.59
2023-04-15T02:42:47.179Z,101084.38
2023-04-15T02:45:13.595Z,101088.84
2023-04-15T02:47:41.430Z,101081.47
2023-04-15T02:50:12.425Z,101098.78
2023-04-15T02:52:42.350Z,101090.56
2023-04-15T02:55:09.677Z,101098.31
2023-04-15T02:57:40.585Z,101099.38
2023-04-15T03:00:09.609Z,101104.22
2023-04-15T03:02:37.389Z,101099.81
2023-04-15T03:05:04.519Z,101102.34
2023-04-15T03:07:31.114Z,101106.34
2023-04-15T03:09:57.755Z,101102.78
2023-04-15T03:12:24.183Z,101110.81
2023-04-15T03:14:50.792Z,101101.44
2023-04-15T03:17:18.031Z,101113.78
2023-04-15T03:19:44.443Z,101105.66
2023-04-15T03:22:10.842Z,101114.41
2023-04-15T03:24:37.285Z,101110.22
2023-04-15T03:27:03.675Z,101107.44
2023-04-15T03:29:30.037Z,101113.56
2023-04-15T03:31:56.804Z,101112.50
2023-04-15T03:34:23.186Z,101116.44
2023-04-15T03:36:49.675Z,101120.75
2023-04-15T03:39:16.551Z,101120.94
2023-04-15T03:41:42.988Z,101114.75
2023-04-15T03:44:09.427Z,101122.25
2023-04-15T03:46:36.218Z,101131.78
2023-04-15T03:49:02.898Z,101137.72
2023-04-15T03:51:29.581Z,101144.84
2023-04-15T03:53:55.988Z,101146.78
2023-04-15T03:56:22.322Z,101149.28
2023-04-15T03:58:48.707Z,101143.50
2023-04-15T04:01:15.172Z,101151.22
2023-04-15T04:03:41.748Z,101142.13
2023-04-15T04:06:08.400Z,101151.25
2023-04-15T04:08:34.816Z,101148.97
2023-04-15T04:11:01.299Z,101164.38
2023-04-15T04:13:27.611Z,101164.19
2023-04-15T04:15:54.088Z,101166.59
2023-04-15T04:18:20.598Z,101168.44
2023-04-15T04:20:47.072Z,101166.50
2023-04-15T04:23:13.512Z,101176.38
2023-04-15T04:25:39.889Z,101174.38
2023-04-15T04:28:06.284Z,101173.34
2023-04-15T04:30:32.721Z,101180.53
2023-04-15T04:32:59.177Z,101178.91
2023-04-15T04:35:25.581Z,101186.00
2023-04-15T04:37:52.435Z,101190.38
2023-04-15T04:40:18.920Z,101194.78
2023-04-15T04:42:45.445Z,101197.13
2023-04-15T04:45:11.898Z,101199.47
2023-04-15T04:47:38.292Z,101208.31
2023-04-15T04:50:05.087Z,101212.59
2023-04-15T04:52:31.604Z,101220.19
2023-04-15T04:54:57.942Z,101228.25
2023-04-15T04:57:24.264Z,101229.78
2023-04-15T04:59:50.985Z,101224.56
2023-04-15T05:02:17.498Z,101226.59
2023-04-15T05:04:43.904Z,101231.22
2023-04-15T05:07:10.788Z,101242.78
2023-04-15T05:09:37.179Z,101242.25
2023-04-15T05:12:07.670Z,101246.44
2023-04-15T05:14:33.996Z,101258.59
2023-04-15T05:17:00.309Z,101261.13
2023-04-15T05:19:26.643Z,101261.38
2023-04-15T05:21:52.981Z,101253.66
2023-04-15T05:24:19.408Z,101255.69
2023-04-15T05:26:46.286Z,101267.31
2023-04-15T05:29:12.651Z,101264.72
2023-04-15T05:31:39.182Z,101277.94
2023-04-15T05:34:05.606Z,101277.28
2023-04-15T05:36:32.003Z,101285.16
2023-04-15T05:38:58.540Z,101289.19
2023-04-15T05:41:24.929Z,101287.84
2023-04-15T05:43:51.357Z,101289.16
2023-04-15T05:46:17.732Z,101299.06
2023-04-15T05:48:44.188Z,101300.38
2023-04-15T05:51:11.011Z,101302.97
2023-04-15T05:53:37.511Z,101311.50
2023-04-15T05:56:04.203Z,101309.63
2023-04-15T05:58:30.504Z,101310.47
2023-04-15T06:00:57.026Z,101316.38
2023-04-15T06:03:23.749Z,101316.38
2023-04-15T06:05:50.182Z,101320.66
2023-04-15T06:08:17.055Z,101322.44
2023-04-15T06:10:43.436Z,101332.56
2023-04-15T06:13:09.820Z,101342.47
2023-04-15T06:15:36.673Z,101336.25
2023-04-15T06:18:03.268Z,101337.13
2023-04-15T06:20:29.708Z,101337.97
2023-04-15T06:22:56.291Z,101343.59
2023-04-15T06:25:22.975Z,101338.06
2023-04-15T06:27:49.465Z,101344.84
2023-04-15T06:30:15.996Z,101350.34
2023-04-15T06:32:42.512Z,101355.34
2023-04-15T06:35:09.475Z,101355.28
2023-04-15T06:37:36.389Z,101354.91
2023-04-15T06:40:04.956Z,101350.53
2023-04-15T06:42:31.595Z,101362.63
2023-04-15T06:44:57.979Z,101365.06
2023-04-15T06:47:24.363Z,101366.56
2023-04-15T06:49:50.916Z,101375.00
2023-04-15T06:52:17.559Z,101383.91
2023-04-15T06:54:43.981Z,101386.31
2023-04-15T06:57:10.470Z,101386.84
2023-04-15T06:59:36.784Z,101389.06
2023-04-15T07:02:03.209Z,101388.25
2023-04-15T07:04:29.697Z,101392.47
2023-04-15T07:06:56.786Z,101393.03
2023-04-15T07:09:24.621Z,101396.09
2023-04-15T07:11:51.413Z,101405.31
2023-04-15T07:14:18.052Z,101409.66
2023-04-15T07:16:44.418Z,101411.00
2023-04-15T07:19:10.912Z,101416.16
2023-04-15T07:21:38.574Z,101422.72
2023-04-15T07:24:06.731Z,101432.00
2023-04-15T07:26:33.098Z,101436.00
2023-04-15T07:28:59.550Z,101426.75
2023-04-15T07:31:26.176Z,101437.63
2023-04-15T07:33:53.275Z,101431.38
2023-04-15T07:36:19.603Z,101431.00
2023-04-15T07:38:45.988Z,101436.34
2023-04-15T07:41:12.416Z,101438.50
2023-04-15T07:43:38.902Z,101446.53
2023-04-15T07:46:05.842Z,101424.78
2023-04-15T07:48:32.315Z,101454.91
2023-04-15T07:50:59.131Z,101452.06
2023-04-15T07:53:26.085Z,101455.81
2023-04-15T07:55:52.499Z,101454.22
2023-04-15T07:58:18.876Z,101466.91
2023-04-15T08:00:45.271Z,101451.00
2023-04-15T08:03:11.918Z,101464.09
2023-04-15T08:05:38.342Z,101462.22
2023-04-15T08:08:04.961Z,101464.41
2023-04-15T08:10:31.610Z,101470.00
2023-04-15T08:12:58.415Z,101473.91
2023-04-15T08:15:24.843Z,101467.50
2023-04-15T08:17:51.429Z,101474.59
2023-04-15T08:20:19.271Z,101473.56
2023-04-15T08:22:47.727Z,101487.91
2023-04-15T08:25:14.572Z,101472.16
2023-04-15T08:27:41.010Z,101467.50
2023-04-15T08:30:08.161Z,101471.19
2023-04-15T08:32:34.575Z,101484.00
2023-04-15T08:35:01.745Z,101472.00
2023-04-15T08:37:28.105Z,101485.84
2023-04-15T08:39:54.630Z,101491.38
2023-04-15T08:42:27.932Z,101499.38
2023-04-15T08:44:55.554Z,101503.94
2023-04-15T08:47:27.242Z,101513.00
2023-04-15T08:49:55.461Z,101517.19
2023-04-15T08:52:22.478Z,101518.84
2023-04-15T08:54:48.859Z,101535.94
2023-04-15T08:57:15.987Z,101533.81
2023-04-15T08:59:43.507Z,101537.97
2023-04-15T09:02:09.974Z,101537.09
2023-04-15T09:04:36.463Z,101544.06
2023-04-15T09:07:02.851Z,101537.88
2023-04-15T09:09:29.255Z,101539.53
2023-04-15T09:11:55.843Z,101539.84
2023-04-15T09:14:22.765Z,101546.50
2023-04-15T09:17:00.043Z,101558.78
2023-04-15T09:19:27.077Z,101554.25
2023-04-15T09:21:58.687Z,101559.13
2023-04-15T09:24:34.222Z,101564.94
2023-04-15T09:27:01.039Z,101568.72
2023-04-15T09:29:27.746Z,101571.47
2023-04-15T09:31:54.108Z,101574.66
2023-04-15T09:34:21.502Z,101567.28
2023-04-15T09:36:50.930Z,101577.50
2023-04-15T09:39:18.042Z,101573.72
2023-04-15T09:41:44.542Z,101581.06
2023-04-15T09:44:26.858Z,101589.84
2023-04-15T09:46:53.457Z,101586.59
2023-04-15T09:49:20.891Z,101586.34
2023-04-15T09:51:58.011Z,101582.94
2023-04-15T09:54:36.687Z,101589.28
2023-04-15T09:57:10.233Z,101591.59
2023-04-15T09:59:36.965Z,101587.63
2023-04-15T10:02:06.415Z,101594.84
2023-04-15T10:04:36.497Z,101599.34
2023-04-15T10:07:05.045Z,101595.91
2023-04-15T10:09:33.475Z,101594.09
2023-04-15T10:12:01.051Z,101597.97
2023-04-15T10:14:32.833Z,101605.28
2023-04-15T10:17:04.348Z,101602.38
2023-04-15T10:19:33.242Z,101608.63
2023-04-15T10:22:00.199Z,101611.91
2023-04-15T10:24:27.845Z,101613.41
2023-04-15T10:26:55.265Z,101609.53
2023-04-15T10:29:21.938Z,101608.09
2023-04-15T10:31:48.895Z,101605.66
2023-04-15T10:34:16.359Z,101604.59
2023-04-15T10:36:42.828Z,101607.97
2023-04-15T10:39:34.458Z,101610.13
2023-04-15T10:42:16.816Z,101625.78
2023-04-15T10:44:45.432Z,101622.97
2023-04-15T10:47:18.993Z,101624.22
2023-04-15T10:49:51.362Z,101630.63
2023-04-15T10:52:22.768Z,101635.91
2023-04-15T10:54:49.191Z,101646.53
2023-04-15T10:57:22.559Z,101640.53
2023-04-15T10:59:58.675Z,101641.47
2023-04-15T11:02:46.510Z,101642.28
2023-04-15T11:05:14.405Z,101643.94
2023-04-15T11:07:46.933Z,101641.09
2023-04-15T11:10:13.280Z,101653.22
2023-04-15T11:12:41.075Z,101654.91
2023-04-15T11:15:32.438Z,101652.28
2023-04-15T11:18:20.739Z,101656.38
2023-04-15T11:20:53.664Z,101657.38
2023-04-15T11:23:27.595Z,101649.38
2023-04-15T11:25:55.917Z,101659.19
2023-04-15T11:28:25.959Z,101646.56
2023-04-15T11:30:52.432Z,101648.66
2023-04-15T11:33:18.867Z,101652.53
2023-04-15T11:35:45.340Z,101661.88
2023-04-15T11:38:13.790Z,101657.69
2023-04-15T11:40:41.595Z,101663.78
2023-04-15T11:43:16.606Z,101652.84
2023-04-15T11:45:53.597Z,101662.69
2023-04-15T11:48:22.185Z,101654.75
2023-04-15T11:50:57.456Z,101662.75
2023-04-15T11:53:24.861Z,101659.47
2023-04-15T11:55:53.523Z,101671.31
2023-04-15T11:58:24.810Z,101675.75
2023-04-15T12:00:53.308Z,101688.56
2023-04-15T12:03:31.878Z,101685.41
2023-04-15T12:06:21.575Z,101686.75
2023-04-15T12:08:52.773Z,101690.91
2023-04-15T12:11:21.453Z,101694.19
2023-04-15T12:13:50.200Z,101698.78
2023-04-15T12:16:18.037Z,101703.19
2023-04-15T12:18:50.929Z,101705.09
2023-04-15T12:21:19.650Z,101702.72
2023-04-15T12:23:53.479Z,101706.22
2023-04-15T12:26:28.202Z,101704.88
2023-04-15T12:29:06.957Z,101708.66
2023-04-15T12:31:37.143Z,101725.84
2023-04-15T12:34:07.634Z,101729.06
2023-04-15T12:36:37.112Z,101735.00
2023-04-15T12:39:05.061Z,101731.28
2023-04-15T12:41:32.305Z,101728.81
2023-04-15T12:43:59.222Z,101733.19
2023-04-15T12:46:27.032Z,101730.38
2023-04-15T12:48:53.421Z,101736.47
2023-04-15T12:51:23.160Z,101742.66
2023-04-15T12:53:49.738Z,101737.06
2023-04-15T12:56:17.004Z,101754.69
2023-04-15T12:58:43.391Z,101751.63
2023-04-15T13:01:10.652Z,101755.56
2023-04-15T13:03:37.278Z,101759.94
2023-04-15T13:06:04.841Z,101758.44
2023-04-15T13:08:31.819Z,101764.03
2023-04-15T13:10:58.497Z,101772.06
2023-04-15T13:13:24.869Z,101767.84
2023-04-15T13:15:51.294Z,101777.41
2023-04-15T13:18:17.671Z,101778.44
2023-04-15T13:20:43.998Z,101789.28
2023-04-15T13:23:10.533Z,101786.00
2023-04-15T13:25:36.854Z,101786.06
2023-04-15T13:28:03.272Z,101800.88
2023-04-15T13:30:29.624Z,101811.31
2023-04-15T13:32:56.081Z,101798.31
2023-04-15T13:35:22.435Z,101805.13
2023-04-15T13:37:48.826Z,101809.50
2023-04-15T13:40:15.458Z,101814.78
2023-04-15T13:42:42.965Z,101812.84
2023-04-15T13:45:09.984Z,101820.84
2023-04-15T13:47:36.500Z,101826.47
2023-04-15T13:50:02.971Z,101830.03
2023-04-15T13:52:29.346Z,101827.91
2023-04-15T13:55:07.000Z,101832.00
2023-04-15T13:57:42.249Z,101835.41
2023-04-15T14:00:09.218Z,101837.88
2023-04-15T14:02:35.781Z,101840.34
2023-04-15T14:05:02.433Z,101820.50
2023-04-15T14:07:31.933Z,101840.44
2023-04-15T14:09:58.393Z,101838.63
2023-04-15T14:12:24.725Z,101846.09
2023-04-15T14:14:51.141Z,101841.56
2023-04-15T14:17:17.609Z,101860.31
2023-04-15T14:19:43.952Z,101863.31
2023-04-15T14:22:10.622Z,101856.44
2023-04-15T14:24:37.080Z,101860.38
2023-04-15T14:27:03.588Z,101879.00
2023-04-15T14:29:29.956Z,101884.94
2023-04-15T14:32:04.293Z,101890.13
2023-04-15T14:34:38.879Z,101882.19
2023-04-15T14:37:05.281Z,101906.47
2023-04-15T14:39:31.679Z,101896.34
2023-04-15T14:41:58.713Z,101888.56
2023-04-15T14:44:25.123Z,101899.97
2023-04-15T14:46:51.878Z,101903.50
2023-04-15T14:49:18.298Z,101906.03
2023-04-15T14:51:44.687Z,101907.25
2023-04-15T14:54:11.109Z,101915.06
2023-04-15T14:56:37.662Z,101921.66
2023-04-15T14:59:04.286Z,101919.50
2023-04-15T15:01:30.865Z,101919.41
2023-04-15T15:03:57.492Z,101925.50
2023-04-15T15:06:25.963Z,101920.91
2023-04-15T15:08:52.347Z,101941.34
2023-04-15T15:11:18.743Z,101938.28
2023-04-15T15:13:45.314Z,101947.16
2023-04-15T15:16:14.289Z,101938.91
2023-04-15T15:18:41.019Z,101941.94
2023-04-15T15:21:07.387Z,101942.38
2023-04-15T15:23:33.787Z,101957.56
2023-04-15T15:26:00.345Z,101956.94
2023-04-15T15:28:27.035Z,101961.91
2023-04-15T15:30:53.373Z,101961.34
2023-04-15T15:33:20.709Z,101964.75
2023-04-15T15:35:47.168Z,101959.41
2023-04-15T15:38:13.523Z,101967.06
2023-04-15T15:40:39.931Z,101971.06
2023-04-15T15:43:06.278Z,101971.41
2023-04-15T15:45:32.825Z,101975.53
2023-04-15T15:48:01.527Z,101979.94
2023-04-15T15:50:27.893Z,101978.88
2023-04-15T15:52:55.093Z,101985.63
2023-04-15T15:55:21.568Z,101985.22
2023-04-15T15:57:47.959Z,101985.22
2023-04-15T16:00:14.646Z,101989.66
2023-04-15T16:05:12.605Z,101997.66
2023-04-15T16:07:38.981Z,101992.81
2023-04-15T16:10:05.883Z,102006.91
2023-04-15T16:12:33.850Z,102007.53
2023-04-15T16:15:01.772Z,102014.63
2023-04-15T16:17:28.154Z,102014.00
2023-04-15T16:19:59.108Z,102028.31
2023-04-15T16:22:27.290Z,102020.91
2023-04-15T16:24:53.746Z,102016.13
2023-04-15T16:27:20.090Z,102027.22
2023-04-15T16:29:46.504Z,102025.50
2023-04-15T16:32:13.021Z,102031.66
2023-04-15T16:34:40.935Z,102041.56
2023-04-15T16:37:07.234Z,102042.53
2023-04-15T16:39:33.888Z,102043.88
2023-04-15T16:42:00.342Z,102039.16
2023-04-15T16:44:26.732Z,102046.53
2023-04-15T16:46:53.100Z,102048.03
2023-04-15T16:49:19.474Z,102053.50
2023-04-15T16:51:45.850Z,102044.66
2023-04-15T16:54:12.280Z,102062.34
2023-04-15T16:56:38.665Z,102060.44
2023-04-15T16:59:05.234Z,102060.44
2023-04-15T17:01:31.907Z,102064.03
2023-04-15T17:03:58.522Z,102063.47
2023-04-15T17:06:24.961Z,102068.38
2023-04-15T17:08:51.505Z,102066.03
2023-04-15T17:11:17.944Z,102069.13
2023-04-15T17:13:44.318Z,102064.81
2023-04-15T17:16:10.924Z,102074.41
2023-04-15T17:18:38.404Z,102078.34
2023-04-15T17:21:05.180Z,102073.09
2023-04-15T17:23:31.708Z,102068.00
2023-04-15T17:25:58.126Z,102080.31
2023-04-15T17:28:24.501Z,102088.22
2023-04-15T17:30:50.909Z,102096.19
2023-04-15T17:33:56.517Z,102097.91
2023-04-15T17:36:04.297Z,102080.41
2023-04-15T17:38:30.701Z,102096.56
2023-04-15T17:40:57.014Z,102095.91
2023-04-15T17:43:23.382Z,102096.09
2023-04-15T17:45:50.820Z,102101.09
2023-04-15T17:48:17.182Z,102107.31
2023-04-15T17:50:43.484Z,102103.91
2023-04-15T17:53:09.853Z,102119.22
2023-04-15T17:55:36.598Z,102113.09
2023-04-15T17:58:03.212Z,102121.00
2023-04-15T18:00:29.548Z,102120.81
2023-04-15T18:02:56.186Z,102132.94
2023-04-15T18:05:22.970Z,102127.00
2023-04-15T18:07:51.981Z,102130.06
2023-04-15T18:10:18.734Z,102130.75
2023-04-15T18:12:45.340Z,102129.91
2023-04-15T18:15:11.753Z,102123.78
2023-04-15T18:17:38.121Z,102130.06
2023-04-15T18:20:06.195Z,102136.38
2023-04-15T18:22:32.525Z,102135.69
2023-04-15T18:25:03.933Z,102136.53
2023-04-15T18:27:34.175Z,102140.09
2023-04-15T18:30:00.812Z,102152.41
2023-04-15T18:32:31.661Z,102160.31
2023-04-15T18:34:58.344Z,102158.72
2023-04-15T18:37:25.163Z,102151.66
2023-04-15T18:39:51.686Z,102150.06
2023-04-15T18:42:18.218Z,102160.16
2023-04-15T18:44:44.595Z,102163.94
2023-04-15T18:47:11.064Z,102148.16
2023-04-15T18:49:37.476Z,102170.38
2023-04-15T18:52:04.118Z,102181.06
2023-04-15T18:54:30.625Z,102177.59
2023-04-15T18:56:57.236Z,102178.72
2023-04-15T18:59:29.573Z,102178.88
2023-04-15T19:01:58.736Z,102180.75
2023-04-15T19:04:25.415Z,102193.91
2023-04-15T19:06:51.812Z,102192.22
2023-04-15T19:09:18.211Z,102200.25
2023-04-15T19:11:44.672Z,102198.56
2023-04-15T19:14:11.637Z,102207.22
2023-04-15T19:16:38.104Z,102204.69
2023-04-15T19:19:06.504Z,102200.25
2023-04-15T19:21:33.211Z,102192.38
2023-04-15T19:24:00.476Z,102200.25
2023-04-15T19:26:26.908Z,102201.94
2023-04-15T19:28:53.894Z,102205.72
2023-04-15T19:31:20.757Z,102209.44
2023-04-15T19:33:47.247Z,102207.75
2023-04-15T19:36:13.741Z,102214.88
2023-04-15T19:38:40.333Z,102206.19
2023-04-15T19:41:06.741Z,102213.19
2023-04-15T19:43:33.272Z,102213.19
2023-04-15T19:45:59.885Z,102214.88
2023-04-15T19:48:26.393Z,102221.97
2023-04-15T19:50:52.794Z,102224.59
2023-04-15T19:53:19.135Z,102218.59
2023-04-15T19:55:46.905Z,102233.59
2023-04-15T19:58:13.271Z,102222.91
2023-04-15T20:00:39.643Z,102230.78
2023-04-15T20:03:06.298Z,102237.75
2023-04-15T20:05:32.888Z,102236.00
2023-04-15T20:08:03.165Z,102242.84
2023-04-15T20:10:31.617Z,102236.50
2023-04-15T20:12:58.033Z,102236.50
2023-04-15T20:15:24.621Z,102236.50
2023-04-15T20:17:51.113Z,102226.72
2023-04-15T20:20:17.560Z,102226.72
2023-04-15T20:22:43.908Z,102232.00
2023-04-15T20:25:10.388Z,102226.66
2023-04-15T20:27:36.836Z,102230.13
2023-04-15T20:30:04.959Z,102238.84
2023-04-15T20:32:35.848Z,102243.16
2023-04-15T20:35:03.233Z,102245.78
2023-04-15T20:37:30.840Z,102243.00
2023-04-15T20:39:57.272Z,102244.00
2023-04-15T20:42:23.593Z,102244.88
2023-04-15T20:44:49.982Z,102240.47
2023-04-15T20:47:16.533Z,102233.59
2023-04-15T20:49:43.105Z,102235.38
2023-04-15T20:52:09.652Z,102233.69
2023-04-15T20:54:36.118Z,102242.31
2023-04-15T20:57:02.563Z,102250.22
2023-04-15T20:59:29.015Z,102244.19
2023-04-15T21:01:57.031Z,102242.50
2023-04-15T21:04:24.424Z,102249.56
2023-04-15T21:06:52.008Z,102256.59
2023-04-15T21:09:18.690Z,102254.13
2023-04-15T21:14:18.595Z,102256.41
2023-04-15T21:16:45.086Z,102256.59
2023-04-15T21:19:11.485Z,102262.00
2023-04-15T21:21:37.886Z,102261.84
2023-04-15T21:24:04.351Z,102258.44
2023-04-15T21:26:30.835Z,102254.91
2023-04-15T21:28:57.231Z,102257.59
2023-04-15T21:31:23.772Z,102265.56
2023-04-15T21:33:50.295Z,102264.72
2023-04-15T21:36:16.725Z,102266.59
2023-04-15T21:38:43.047Z,102269.28
2023-04-15T21:41:10.225Z,102271.00
2023-04-15T21:43:37.122Z,102267.59
2023-04-15T21:46:22.275Z,102267.59
2023-04-15T21:48:50.182Z,102269.28
2023-04-15T21:51:16.550Z,102265.75
2023-04-15T21:53:43.029Z,102271.00
2023-04-15T21:56:09.466Z,102279.78
2023-04-15T21:58:36.143Z,102278.09
2023-04-15T22:01:03.658Z,102285.06
2023-04-15T22:03:33.518Z,102290.16
2023-04-15T22:06:04.187Z,102293.63
2023-04-15T22:08:38.244Z,102293.53
2023-04-15T22:11:20.554Z,102295.22
2023-04-15T22:13:47.041Z,102298.66
2023-04-15T22:16:13.431Z,102297.81
2023-04-15T22:18:39.766Z,102295.09
2023-04-15T22:21:06.178Z,102289.66
2023-04-15T22:23:32.505Z,102288.66
2023-04-15T22:25:59.489Z,102290.34
2023-04-15T22:28:25.902Z,102294.66
2023-04-15T22:30:54.515Z,102301.59
2023-04-15T22:33:20.984Z,102302.38
2023-04-15T22:35:47.355Z,102307.72
2023-04-15T22:38:13.787Z,102303.38
2023-04-15T22:40:40.495Z,102308.66
2023-04-15T22:43:06.887Z,102310.34
2023-04-15T22:45:33.264Z,102304.16
2023-04-15T22:47:59.714Z,102299.66
2023-04-15T22:50:26.150Z,102310.19
2023-04-15T22:52:52.614Z,102313.56
2023-04-15T22:55:19.034Z,102304.75
2023-04-15T22:57:45.458Z,102311.53
2023-04-15T23:00:12.310Z,102310.69
2023-04-15T23:02:38.885Z,102314.09
2023-04-15T23:05:13.024Z,102323.56
2023-04-15T23:07:40.029Z,102320.03
2023-04-15T23:10:07.959Z,102328.06
2023-04-15T23:12:34.387Z,102326.19
2023-04-15T23:15:00.831Z,102329.75
2023-04-15T23:17:27.280Z,102323.56
2023-04-15T23:19:53.790Z,102335.88
2023-04-15T23:22:20.184Z,102334.09
2023-04-15T23:24:46.620Z,102344.59
2023-04-15T23:27:12.988Z,102343.09
2023-04-15T23:29:39.374Z,102341.22
2023-04-15T23:32:06.476Z,102339.53
2023-04-15T23:34:32.828Z,102337.75
2023-04-15T23:36:59.183Z,102342.91
2023-04-15T23:39:25.607Z,102337.75
2023-04-15T23:41:51.947Z,102343.25
2023-04-15T23:44:18.380Z,102341.56
2023-04-15T23:46:44.770Z,102359.03
2023-04-15T23:49:11.286Z,102348.50
2023-04-15T23:51:37.827Z,102350.38
2023-04-15T23:54:04.204Z,102355.63
2023-04-15T23:56:31.341Z,102353.94
2023-04-15T23:58:57.806Z,102352.06
